sensor_id;sensor_type;location;lat;lon;timestamp;P1;durP1;ratioP1;P2;durP2;ratioP2
19024;SDS011;9645;51.448;6.260;2023-02-01T00:02:13;19.10;;;5.72;;
19024;SDS011;9645;51.448;6.260;2023-02-01T00:04:40;27.75;;;6.60;;
19024;SDS011;9645;51.448;6.260;2023-02-01T00:07:09;19.15;;;5.97;;
19024;SDS011;9645;51.448;6.260;2023-02-01T00:09:37;20.80;;;5.80;;
19024;SDS011;9645;51.448;6.260;2023-02-01T00:12:05;19.65;;;7.47;;
19024;SDS011;9645;51.448;6.260;2023-02-01T00:14:32;24.35;;;8.38;;
19024;SDS011;9645;51.448;6.260;2023-02-01T00:17:03;39.22;;;8.45;;
19024;SDS011;9645;51.448;6.260;2023-02-01T00:19:31;26.38;;;8.32;;
19024;SDS011;9645;51.448;6.260;2023-02-01T00:21:58;25.10;;;7.72;;
19024;SDS011;9645;51.448;6.260;2023-02-01T00:24:25;29.08;;;8.00;;
19024;SDS011;9645;51.448;6.260;2023-02-01T00:26:52;32.15;;;8.23;;
19024;SDS011;9645;51.448;6.260;2023-02-01T00:29:21;30.42;;;7.97;;
19024;SDS011;9645;51.448;6.260;2023-02-01T00:31:49;27.45;;;8.40;;
19024;SDS011;9645;51.448;6.260;2023-02-01T00:34:17;29.45;;;8.50;;
19024;SDS011;9645;51.448;6.260;2023-02-01T00:36:45;22.13;;;7.45;;
19024;SDS011;9645;51.448;6.260;2023-02-01T00:39:12;29.95;;;8.15;;
19024;SDS011;9645;51.448;6.260;2023-02-01T00:41:39;31.73;;;8.15;;
19024;SDS011;9645;51.448;6.260;2023-02-01T00:44:06;24.15;;;6.70;;
19024;SDS011;9645;51.448;6.260;2023-02-01T00:46:35;30.85;;;7.55;;
19024;SDS011;9645;51.448;6.260;2023-02-01T00:49:02;34.85;;;7.63;;
19024;SDS011;9645;51.448;6.260;2023-02-01T00:51:29;31.90;;;6.50;;
19024;SDS011;9645;51.448;6.260;2023-02-01T00:53:56;18.27;;;6.38;;
19024;SDS011;9645;51.448;6.260;2023-02-01T00:56:23;23.42;;;6.38;;
19024;SDS011;9645;51.448;6.260;2023-02-01T00:58:52;26.02;;;7.15;;
19024;SDS011;9645;51.448;6.260;2023-02-01T01:01:20;24.05;;;6.20;;
19024;SDS011;9645;51.448;6.260;2023-02-01T01:03:50;24.27;;;7.00;;
19024;SDS011;9645;51.448;6.260;2023-02-01T01:06:19;25.90;;;5.93;;
19024;SDS011;9645;51.448;6.260;2023-02-01T01:08:49;21.55;;;5.32;;
19024;SDS011;9645;51.448;6.260;2023-02-01T01:11:18;16.48;;;4.85;;
19024;SDS011;9645;51.448;6.260;2023-02-01T01:13:46;19.52;;;4.72;;
19024;SDS011;9645;51.448;6.260;2023-02-01T01:16:13;17.90;;;4.10;;
19024;SDS011;9645;51.448;6.260;2023-02-01T01:18:42;25.60;;;5.18;;
19024;SDS011;9645;51.448;6.260;2023-02-01T01:21:11;24.83;;;5.13;;
19024;SDS011;9645;51.448;6.260;2023-02-01T01:23:40;17.30;;;4.80;;
19024;SDS011;9645;51.448;6.260;2023-02-01T01:26:07;22.95;;;4.53;;
19024;SDS011;9645;51.448;6.260;2023-02-01T01:28:35;14.35;;;4.55;;
19024;SDS011;9645;51.448;6.260;2023-02-01T01:31:03;16.27;;;4.35;;
19024;SDS011;9645;51.448;6.260;2023-02-01T01:33:30;19.27;;;4.80;;
19024;SDS011;9645;51.448;6.260;2023-02-01T01:35:57;20.70;;;3.70;;
19024;SDS011;9645;51.448;6.260;2023-02-01T01:38:25;16.35;;;4.00;;
19024;SDS011;9645;51.448;6.260;2023-02-01T01:40:52;11.60;;;3.35;;
19024;SDS011;9645;51.448;6.260;2023-02-01T01:43:20;14.77;;;3.88;;
19024;SDS011;9645;51.448;6.260;2023-02-01T01:45:47;49.08;;;4.72;;
19024;SDS011;9645;51.448;6.260;2023-02-01T01:48:16;32.78;;;4.15;;
19024;SDS011;9645;51.448;6.260;2023-02-01T01:50:47;9.27;;;3.25;;
19024;SDS011;9645;51.448;6.260;2023-02-01T01:53:18;20.77;;;3.65;;
19024;SDS011;9645;51.448;6.260;2023-02-01T01:55:50;13.88;;;3.13;;
19024;SDS011;9645;51.448;6.260;2023-02-01T01:58:20;37.22;;;3.28;;
19024;SDS011;9645;51.448;6.260;2023-02-01T02:00:50;12.77;;;3.08;;
19024;SDS011;9645;51.448;6.260;2023-02-01T02:03:18;13.57;;;2.72;;
19024;SDS011;9645;51.448;6.260;2023-02-01T02:05:47;14.50;;;2.90;;
19024;SDS011;9645;51.448;6.260;2023-02-01T02:08:17;17.90;;;3.80;;
19024;SDS011;9645;51.448;6.260;2023-02-01T02:10:45;12.48;;;3.15;;
19024;SDS011;9645;51.448;6.260;2023-02-01T02:13:29;12.13;;;2.70;;
19024;SDS011;9645;51.448;6.260;2023-02-01T02:16:11;16.85;;;3.40;;
19024;SDS011;9645;51.448;6.260;2023-02-01T02:19:01;13.65;;;3.05;;
19024;SDS011;9645;51.448;6.260;2023-02-01T02:21:51;21.60;;;3.40;;
19024;SDS011;9645;51.448;6.260;2023-02-01T02:24:39;21.58;;;3.10;;
19024;SDS011;9645;51.448;6.260;2023-02-01T02:27:24;20.08;;;3.55;;
19024;SDS011;9645;51.448;6.260;2023-02-01T02:36:09;12.75;;;3.70;;
19024;SDS011;9645;51.448;6.260;2023-02-01T02:38:41;15.77;;;3.72;;
19024;SDS011;9645;51.448;6.260;2023-02-01T02:41:15;16.02;;;3.33;;
19024;SDS011;9645;51.448;6.260;2023-02-01T02:44:00;15.02;;;3.70;;
19024;SDS011;9645;51.448;6.260;2023-02-01T02:46:52;19.92;;;4.53;;
19024;SDS011;9645;51.448;6.260;2023-02-01T02:49:42;15.55;;;3.63;;
19024;SDS011;9645;51.448;6.260;2023-02-01T02:52:37;16.00;;;3.55;;
19024;SDS011;9645;51.448;6.260;2023-02-01T02:55:25;24.50;;;4.60;;
19024;SDS011;9645;51.448;6.260;2023-02-01T02:57:53;18.42;;;4.47;;
19024;SDS011;9645;51.448;6.260;2023-02-01T03:00:39;30.80;;;4.82;;
19024;SDS011;9645;51.448;6.260;2023-02-01T03:03:26;20.42;;;4.50;;
19024;SDS011;9645;51.448;6.260;2023-02-01T03:06:13;11.38;;;3.83;;
19024;SDS011;9645;51.448;6.260;2023-02-01T03:08:43;29.65;;;5.05;;
19024;SDS011;9645;51.448;6.260;2023-02-01T03:11:11;23.75;;;4.35;;
19024;SDS011;9645;51.448;6.260;2023-02-01T03:13:41;18.05;;;3.80;;
19024;SDS011;9645;51.448;6.260;2023-02-01T03:16:14;19.40;;;3.80;;
19024;SDS011;9645;51.448;6.260;2023-02-01T03:18:48;18.23;;;4.18;;
19024;SDS011;9645;51.448;6.260;2023-02-01T03:21:21;26.67;;;4.57;;
19024;SDS011;9645;51.448;6.260;2023-02-01T03:23:51;19.75;;;5.75;;
19024;SDS011;9645;51.448;6.260;2023-02-01T03:26:20;16.77;;;4.75;;
19024;SDS011;9645;51.448;6.260;2023-02-01T03:28:51;18.92;;;4.18;;
19024;SDS011;9645;51.448;6.260;2023-02-01T03:31:23;24.92;;;4.50;;
19024;SDS011;9645;51.448;6.260;2023-02-01T03:33:50;9.85;;;3.40;;
19024;SDS011;9645;51.448;6.260;2023-02-01T03:36:20;11.90;;;3.70;;
19024;SDS011;9645;51.448;6.260;2023-02-01T03:38:53;16.40;;;4.15;;
19024;SDS011;9645;51.448;6.260;2023-02-01T03:41:27;16.35;;;4.22;;
19024;SDS011;9645;51.448;6.260;2023-02-01T03:44:01;17.13;;;3.45;;
19024;SDS011;9645;51.448;6.260;2023-02-01T03:46:37;18.45;;;3.85;;
19024;SDS011;9645;51.448;6.260;2023-02-01T03:49:09;18.60;;;3.63;;
19024;SDS011;9645;51.448;6.260;2023-02-01T03:51:41;16.33;;;4.13;;
19024;SDS011;9645;51.448;6.260;2023-02-01T03:54:09;11.27;;;3.35;;
19024;SDS011;9645;51.448;6.260;2023-02-01T03:56:40;26.38;;;3.85;;
19024;SDS011;9645;51.448;6.260;2023-02-01T03:59:10;19.48;;;4.00;;
19024;SDS011;9645;51.448;6.260;2023-02-01T04:01:38;18.90;;;3.85;;
19024;SDS011;9645;51.448;6.260;2023-02-01T04:04:05;9.95;;;3.50;;
19024;SDS011;9645;51.448;6.260;2023-02-01T04:06:34;14.23;;;3.55;;
19024;SDS011;9645;51.448;6.260;2023-02-01T04:09:02;24.60;;;3.75;;
19024;SDS011;9645;51.448;6.260;2023-02-01T04:11:29;22.63;;;3.58;;
19024;SDS011;9645;51.448;6.260;2023-02-01T04:13:56;17.60;;;4.30;;
19024;SDS011;9645;51.448;6.260;2023-02-01T04:16:23;16.20;;;3.92;;
19024;SDS011;9645;51.448;6.260;2023-02-01T04:18:50;19.15;;;3.42;;
19024;SDS011;9645;51.448;6.260;2023-02-01T04:21:17;24.33;;;4.07;;
19024;SDS011;9645;51.448;6.260;2023-02-01T04:23:44;15.23;;;3.17;;
19024;SDS011;9645;51.448;6.260;2023-02-01T04:26:13;20.92;;;3.83;;
19024;SDS011;9645;51.448;6.260;2023-02-01T04:28:41;18.25;;;3.33;;
19024;SDS011;9645;51.448;6.260;2023-02-01T04:31:08;15.45;;;3.72;;
19024;SDS011;9645;51.448;6.260;2023-02-01T04:33:35;22.88;;;3.70;;
19024;SDS011;9645;51.448;6.260;2023-02-01T04:36:02;15.93;;;2.70;;
19024;SDS011;9645;51.448;6.260;2023-02-01T04:38:30;21.23;;;3.60;;
19024;SDS011;9645;51.448;6.260;2023-02-01T04:40:57;21.88;;;3.72;;
19024;SDS011;9645;51.448;6.260;2023-02-01T04:43:26;31.23;;;4.53;;
19024;SDS011;9645;51.448;6.260;2023-02-01T04:45:53;23.52;;;3.88;;
19024;SDS011;9645;51.448;6.260;2023-02-01T04:48:20;24.92;;;3.80;;
19024;SDS011;9645;51.448;6.260;2023-02-01T04:50:48;19.63;;;3.63;;
19024;SDS011;9645;51.448;6.260;2023-02-01T04:53:15;18.67;;;3.42;;
19024;SDS011;9645;51.448;6.260;2023-02-01T04:55:42;14.38;;;3.40;;
19024;SDS011;9645;51.448;6.260;2023-02-01T04:58:10;11.23;;;3.33;;
19024;SDS011;9645;51.448;6.260;2023-02-01T05:00:39;11.27;;;2.65;;
19024;SDS011;9645;51.448;6.260;2023-02-01T05:03:06;19.92;;;3.50;;
19024;SDS011;9645;51.448;6.260;2023-02-01T05:05:33;21.08;;;3.10;;
19024;SDS011;9645;51.448;6.260;2023-02-01T05:08:00;12.73;;;2.80;;
19024;SDS011;9645;51.448;6.260;2023-02-01T05:10:27;34.67;;;3.17;;
19024;SDS011;9645;51.448;6.260;2023-02-01T05:12:54;23.88;;;3.72;;
19024;SDS011;9645;51.448;6.260;2023-02-01T05:15:39;18.52;;;4.30;;
19024;SDS011;9645;51.448;6.260;2023-02-01T05:18:06;11.90;;;3.15;;
19024;SDS011;9645;51.448;6.260;2023-02-01T05:20:33;17.63;;;3.78;;
19024;SDS011;9645;51.448;6.260;2023-02-01T05:23:00;21.30;;;2.97;;
19024;SDS011;9645;51.448;6.260;2023-02-01T05:25:27;25.45;;;4.15;;
19024;SDS011;9645;51.448;6.260;2023-02-01T05:27:54;18.95;;;3.17;;
19024;SDS011;9645;51.448;6.260;2023-02-01T05:30:21;24.17;;;3.47;;
19024;SDS011;9645;51.448;6.260;2023-02-01T05:32:50;31.50;;;4.47;;
19024;SDS011;9645;51.448;6.260;2023-02-01T05:35:17;37.60;;;4.03;;
19024;SDS011;9645;51.448;6.260;2023-02-01T05:37:45;21.80;;;4.20;;
19024;SDS011;9645;51.448;6.260;2023-02-01T05:40:12;30.58;;;3.40;;
19024;SDS011;9645;51.448;6.260;2023-02-01T05:42:39;36.40;;;3.38;;
19024;SDS011;9645;51.448;6.260;2023-02-01T05:45:07;18.63;;;3.13;;
19024;SDS011;9645;51.448;6.260;2023-02-01T05:47:34;21.90;;;4.20;;
19024;SDS011;9645;51.448;6.260;2023-02-01T05:50:03;21.92;;;3.15;;
19024;SDS011;9645;51.448;6.260;2023-02-01T05:52:31;25.98;;;3.33;;
19024;SDS011;9645;51.448;6.260;2023-02-01T05:54:58;20.55;;;3.78;;
19024;SDS011;9645;51.448;6.260;2023-02-01T05:57:25;26.77;;;4.43;;
19024;SDS011;9645;51.448;6.260;2023-02-01T05:59:52;22.17;;;3.72;;
19024;SDS011;9645;51.448;6.260;2023-02-01T06:02:19;15.45;;;3.25;;
19024;SDS011;9645;51.448;6.260;2023-02-01T06:04:49;30.23;;;3.70;;
19024;SDS011;9645;51.448;6.260;2023-02-01T06:07:17;14.13;;;3.38;;
19024;SDS011;9645;51.448;6.260;2023-02-01T06:09:46;26.92;;;4.32;;
19024;SDS011;9645;51.448;6.260;2023-02-01T06:12:17;17.80;;;3.45;;
19024;SDS011;9645;51.448;6.260;2023-02-01T06:14:44;17.33;;;3.50;;
19024;SDS011;9645;51.448;6.260;2023-02-01T06:17:11;18.88;;;3.40;;
19024;SDS011;9645;51.448;6.260;2023-02-01T06:19:38;32.08;;;3.63;;
19024;SDS011;9645;51.448;6.260;2023-02-01T06:22:06;30.15;;;4.22;;
19024;SDS011;9645;51.448;6.260;2023-02-01T06:24:38;17.00;;;3.20;;
19024;SDS011;9645;51.448;6.260;2023-02-01T06:27:06;17.80;;;3.30;;
19024;SDS011;9645;51.448;6.260;2023-02-01T06:29:35;20.60;;;3.53;;
19024;SDS011;9645;51.448;6.260;2023-02-01T06:32:03;17.80;;;3.40;;
19024;SDS011;9645;51.448;6.260;2023-02-01T06:34:30;19.63;;;3.75;;
19024;SDS011;9645;51.448;6.260;2023-02-01T06:36:57;23.50;;;4.03;;
19024;SDS011;9645;51.448;6.260;2023-02-01T06:39:24;22.08;;;3.50;;
19024;SDS011;9645;51.448;6.260;2023-02-01T06:41:53;26.67;;;3.38;;
19024;SDS011;9645;51.448;6.260;2023-02-01T06:44:20;25.63;;;3.22;;
19024;SDS011;9645;51.448;6.260;2023-02-01T06:46:48;32.05;;;4.57;;
19024;SDS011;9645;51.448;6.260;2023-02-01T06:49:15;23.77;;;3.78;;
19024;SDS011;9645;51.448;6.260;2023-02-01T06:51:43;35.42;;;5.13;;
19024;SDS011;9645;51.448;6.260;2023-02-01T06:54:10;21.58;;;3.42;;
19024;SDS011;9645;51.448;6.260;2023-02-01T06:56:38;18.55;;;3.60;;
19024;SDS011;9645;51.448;6.260;2023-02-01T06:59:06;20.15;;;3.70;;
19024;SDS011;9645;51.448;6.260;2023-02-01T07:01:34;22.77;;;3.80;;
19024;SDS011;9645;51.448;6.260;2023-02-01T07:04:01;28.83;;;3.90;;
19024;SDS011;9645;51.448;6.260;2023-02-01T07:06:29;27.92;;;4.20;;
19024;SDS011;9645;51.448;6.260;2023-02-01T07:08:58;29.02;;;4.65;;
19024;SDS011;9645;51.448;6.260;2023-02-01T07:11:25;20.35;;;4.88;;
19024;SDS011;9645;51.448;6.260;2023-02-01T07:13:53;27.60;;;4.97;;
19024;SDS011;9645;51.448;6.260;2023-02-01T07:16:22;19.05;;;3.95;;
19024;SDS011;9645;51.448;6.260;2023-02-01T07:18:49;13.05;;;3.70;;
19024;SDS011;9645;51.448;6.260;2023-02-01T07:21:17;19.15;;;4.15;;
19024;SDS011;9645;51.448;6.260;2023-02-01T07:23:45;14.77;;;3.28;;
19024;SDS011;9645;51.448;6.260;2023-02-01T07:26:13;22.77;;;5.20;;
19024;SDS011;9645;51.448;6.260;2023-02-01T07:28:41;21.98;;;4.15;;
19024;SDS011;9645;51.448;6.260;2023-02-01T07:31:09;16.77;;;3.53;;
19024;SDS011;9645;51.448;6.260;2023-02-01T07:33:39;24.80;;;4.05;;
19024;SDS011;9645;51.448;6.260;2023-02-01T07:36:07;25.45;;;4.10;;
19024;SDS011;9645;51.448;6.260;2023-02-01T07:38:38;18.23;;;3.33;;
19024;SDS011;9645;51.448;6.260;2023-02-01T07:41:06;18.60;;;3.80;;
19024;SDS011;9645;51.448;6.260;2023-02-01T07:43:35;25.73;;;3.70;;
19024;SDS011;9645;51.448;6.260;2023-02-01T07:46:03;28.98;;;4.03;;
19024;SDS011;9645;51.448;6.260;2023-02-01T07:48:31;24.58;;;4.07;;
19024;SDS011;9645;51.448;6.260;2023-02-01T07:51:01;43.20;;;4.55;;
19024;SDS011;9645;51.448;6.260;2023-02-01T07:53:30;27.45;;;3.95;;
19024;SDS011;9645;51.448;6.260;2023-02-01T07:55:58;36.83;;;3.85;;
19024;SDS011;9645;51.448;6.260;2023-02-01T07:58:25;13.25;;;3.72;;
19024;SDS011;9645;51.448;6.260;2023-02-01T08:00:53;11.88;;;3.08;;
19024;SDS011;9645;51.448;6.260;2023-02-01T08:03:38;31.67;;;3.65;;
19024;SDS011;9645;51.448;6.260;2023-02-01T08:06:06;30.40;;;4.05;;
19024;SDS011;9645;51.448;6.260;2023-02-01T08:08:33;20.95;;;3.88;;
19024;SDS011;9645;51.448;6.260;2023-02-01T08:11:01;29.65;;;4.25;;
19024;SDS011;9645;51.448;6.260;2023-02-01T08:13:29;33.38;;;4.47;;
19024;SDS011;9645;51.448;6.260;2023-02-01T08:15:57;32.50;;;3.67;;
19024;SDS011;9645;51.448;6.260;2023-02-01T08:18:25;27.88;;;3.95;;
19024;SDS011;9645;51.448;6.260;2023-02-01T08:20:52;18.45;;;3.97;;
19024;SDS011;9645;51.448;6.260;2023-02-01T08:23:22;19.35;;;3.35;;
19024;SDS011;9645;51.448;6.260;2023-02-01T08:25:49;32.83;;;3.75;;
19024;SDS011;9645;51.448;6.260;2023-02-01T08:28:16;22.65;;;4.18;;
19024;SDS011;9645;51.448;6.260;2023-02-01T08:30:43;25.77;;;3.85;;
19024;SDS011;9645;51.448;6.260;2023-02-01T08:33:10;26.88;;;4.88;;
19024;SDS011;9645;51.448;6.260;2023-02-01T08:35:37;19.27;;;3.72;;
19024;SDS011;9645;51.448;6.260;2023-02-01T08:38:04;32.38;;;3.40;;
19024;SDS011;9645;51.448;6.260;2023-02-01T08:40:33;21.85;;;3.80;;
19024;SDS011;9645;51.448;6.260;2023-02-01T08:43:00;21.52;;;4.07;;
19024;SDS011;9645;51.448;6.260;2023-02-01T08:45:28;24.83;;;4.80;;
19024;SDS011;9645;51.448;6.260;2023-02-01T08:47:56;25.35;;;4.55;;
19024;SDS011;9645;51.448;6.260;2023-02-01T08:50:24;28.42;;;4.32;;
19024;SDS011;9645;51.448;6.260;2023-02-01T08:52:51;34.30;;;4.75;;
19024;SDS011;9645;51.448;6.260;2023-02-01T08:55:18;20.98;;;4.00;;
19024;SDS011;9645;51.448;6.260;2023-02-01T08:57:47;16.30;;;4.00;;
19024;SDS011;9645;51.448;6.260;2023-02-01T09:00:15;32.42;;;4.15;;
19024;SDS011;9645;51.448;6.260;2023-02-01T09:02:43;15.60;;;3.45;;
19024;SDS011;9645;51.448;6.260;2023-02-01T09:05:11;22.30;;;3.70;;
19024;SDS011;9645;51.448;6.260;2023-02-01T09:07:41;28.23;;;4.28;;
19024;SDS011;9645;51.448;6.260;2023-02-01T09:10:09;20.55;;;3.13;;
19024;SDS011;9645;51.448;6.260;2023-02-01T09:12:36;18.50;;;4.65;;
19024;SDS011;9645;51.448;6.260;2023-02-01T09:15:06;22.50;;;4.20;;
19024;SDS011;9645;51.448;6.260;2023-02-01T09:17:33;14.75;;;3.47;;
19024;SDS011;9645;51.448;6.260;2023-02-01T09:20:00;27.80;;;4.15;;
19024;SDS011;9645;51.448;6.260;2023-02-01T09:22:28;16.48;;;4.20;;
19024;SDS011;9645;51.448;6.260;2023-02-01T09:24:55;28.02;;;4.20;;
19024;SDS011;9645;51.448;6.260;2023-02-01T09:27:22;19.52;;;4.03;;
19024;SDS011;9645;51.448;6.260;2023-02-01T09:29:49;32.78;;;5.60;;
19024;SDS011;9645;51.448;6.260;2023-02-01T09:32:19;27.95;;;4.32;;
19024;SDS011;9645;51.448;6.260;2023-02-01T09:34:46;25.48;;;4.38;;
19024;SDS011;9645;51.448;6.260;2023-02-01T09:37:13;19.35;;;3.38;;
19024;SDS011;9645;51.448;6.260;2023-02-01T09:39:40;37.00;;;3.92;;
19024;SDS011;9645;51.448;6.260;2023-02-01T09:42:12;27.48;;;4.50;;
19024;SDS011;9645;51.448;6.260;2023-02-01T09:44:49;16.00;;;3.83;;
19024;SDS011;9645;51.448;6.260;2023-02-01T09:47:32;28.15;;;4.45;;
19024;SDS011;9645;51.448;6.260;2023-02-01T09:50:02;19.13;;;3.95;;
19024;SDS011;9645;51.448;6.260;2023-02-01T09:52:34;25.27;;;4.10;;
19024;SDS011;9645;51.448;6.260;2023-02-01T09:55:06;40.20;;;4.68;;
19024;SDS011;9645;51.448;6.260;2023-02-01T09:57:41;17.42;;;4.10;;
19024;SDS011;9645;51.448;6.260;2023-02-01T10:00:17;21.50;;;4.20;;
19024;SDS011;9645;51.448;6.260;2023-02-01T10:02:48;35.45;;;4.07;;
19024;SDS011;9645;51.448;6.260;2023-02-01T10:05:16;12.60;;;3.78;;
19024;SDS011;9645;51.448;6.260;2023-02-01T10:07:57;35.90;;;5.82;;
19024;SDS011;9645;51.448;6.260;2023-02-01T10:10:28;25.75;;;4.60;;
19024;SDS011;9645;51.448;6.260;2023-02-01T10:13:09;25.40;;;3.80;;
19024;SDS011;9645;51.448;6.260;2023-02-01T10:15:52;22.50;;;3.25;;
19024;SDS011;9645;51.448;6.260;2023-02-01T10:18:33;30.17;;;3.80;;
19024;SDS011;9645;51.448;6.260;2023-02-01T10:21:15;13.70;;;3.78;;
19024;SDS011;9645;51.448;6.260;2023-02-01T10:23:58;12.07;;;3.53;;
19024;SDS011;9645;51.448;6.260;2023-02-01T10:26:45;18.65;;;4.15;;
19024;SDS011;9645;51.448;6.260;2023-02-01T10:29:18;16.30;;;3.80;;
19024;SDS011;9645;51.448;6.260;2023-02-01T10:31:48;25.17;;;3.45;;
19024;SDS011;9645;51.448;6.260;2023-02-01T10:34:18;23.67;;;3.95;;
19024;SDS011;9645;51.448;6.260;2023-02-01T10:36:53;33.00;;;4.93;;
19024;SDS011;9645;51.448;6.260;2023-02-01T10:39:21;21.45;;;4.20;;
19024;SDS011;9645;51.448;6.260;2023-02-01T10:41:49;19.95;;;3.90;;
19024;SDS011;9645;51.448;6.260;2023-02-01T10:44:16;23.48;;;3.75;;
19024;SDS011;9645;51.448;6.260;2023-02-01T10:46:47;16.77;;;3.75;;
19024;SDS011;9645;51.448;6.260;2023-02-01T10:49:17;30.15;;;4.38;;
19024;SDS011;9645;51.448;6.260;2023-02-01T10:51:50;23.60;;;4.00;;
19024;SDS011;9645;51.448;6.260;2023-02-01T10:54:21;21.85;;;4.88;;
19024;SDS011;9645;51.448;6.260;2023-02-01T10:56:57;21.33;;;4.45;;
19024;SDS011;9645;51.448;6.260;2023-02-01T10:59:25;26.40;;;3.80;;
19024;SDS011;9645;51.448;6.260;2023-02-01T11:01:58;20.08;;;3.72;;
19024;SDS011;9645;51.448;6.260;2023-02-01T11:04:28;26.63;;;3.75;;
19024;SDS011;9645;51.448;6.260;2023-02-01T11:07:07;13.18;;;3.60;;
19024;SDS011;9645;51.448;6.260;2023-02-01T11:09:42;24.75;;;3.83;;
19024;SDS011;9645;51.448;6.260;2023-02-01T11:12:23;19.25;;;4.72;;
19024;SDS011;9645;51.448;6.260;2023-02-01T11:14:56;23.35;;;4.10;;
19024;SDS011;9645;51.448;6.260;2023-02-01T11:17:27;10.27;;;3.83;;
19024;SDS011;9645;51.448;6.260;2023-02-01T11:20:05;24.23;;;4.15;;
19024;SDS011;9645;51.448;6.260;2023-02-01T11:22:39;27.45;;;3.88;;
19024;SDS011;9645;51.448;6.260;2023-02-01T11:25:13;20.02;;;4.60;;
19024;SDS011;9645;51.448;6.260;2023-02-01T11:27:42;13.20;;;3.65;;
19024;SDS011;9645;51.448;6.260;2023-02-01T11:30:13;22.30;;;3.00;;
19024;SDS011;9645;51.448;6.260;2023-02-01T11:32:42;22.77;;;4.57;;
19024;SDS011;9645;51.448;6.260;2023-02-01T11:35:13;33.03;;;8.88;;
19024;SDS011;9645;51.448;6.260;2023-02-01T11:37:44;17.15;;;4.03;;
19024;SDS011;9645;51.448;6.260;2023-02-01T11:40:26;16.63;;;3.55;;
19024;SDS011;9645;51.448;6.260;2023-02-01T11:42:55;8.20;;;2.60;;
19024;SDS011;9645;51.448;6.260;2023-02-01T11:45:27;16.27;;;3.28;;
19024;SDS011;9645;51.448;6.260;2023-02-01T11:47:55;17.67;;;3.22;;
19024;SDS011;9645;51.448;6.260;2023-02-01T11:50:27;13.77;;;3.28;;
19024;SDS011;9645;51.448;6.260;2023-02-01T11:53:07;17.40;;;3.40;;
19024;SDS011;9645;51.448;6.260;2023-02-01T11:55:48;26.70;;;3.05;;
19024;SDS011;9645;51.448;6.260;2023-02-01T11:58:27;11.98;;;2.30;;
19024;SDS011;9645;51.448;6.260;2023-02-01T12:01:12;17.67;;;3.53;;
19024;SDS011;9645;51.448;6.260;2023-02-01T12:04:10;15.63;;;2.53;;
19024;SDS011;9645;51.448;6.260;2023-02-01T12:06:58;12.68;;;2.55;;
19024;SDS011;9645;51.448;6.260;2023-02-01T12:09:35;20.60;;;2.97;;
19024;SDS011;9645;51.448;6.260;2023-02-01T12:12:13;22.45;;;2.78;;
19024;SDS011;9645;51.448;6.260;2023-02-01T12:14:56;23.35;;;3.20;;
19024;SDS011;9645;51.448;6.260;2023-02-01T12:17:42;11.00;;;2.55;;
19024;SDS011;9645;51.448;6.260;2023-02-01T12:20:36;12.40;;;3.00;;
19024;SDS011;9645;51.448;6.260;2023-02-01T12:23:27;9.55;;;2.33;;
19024;SDS011;9645;51.448;6.260;2023-02-01T12:29:13;19.65;;;2.85;;
19024;SDS011;9645;51.448;6.260;2023-02-01T12:32:11;16.13;;;2.85;;
19024;SDS011;9645;51.448;6.260;2023-02-01T12:35:02;13.73;;;3.05;;
19024;SDS011;9645;51.448;6.260;2023-02-01T12:37:51;10.30;;;2.70;;
19024;SDS011;9645;51.448;6.260;2023-02-01T12:40:37;10.40;;;2.88;;
19024;SDS011;9645;51.448;6.260;2023-02-01T12:43:14;23.20;;;2.70;;
19024;SDS011;9645;51.448;6.260;2023-02-01T12:45:48;22.02;;;3.00;;
19024;SDS011;9645;51.448;6.260;2023-02-01T12:48:26;14.70;;;2.78;;
19024;SDS011;9645;51.448;6.260;2023-02-01T12:50:59;21.63;;;2.78;;
19024;SDS011;9645;51.448;6.260;2023-02-01T12:53:31;25.13;;;6.15;;
19024;SDS011;9645;51.448;6.260;2023-02-01T12:56:11;7.25;;;2.20;;
19024;SDS011;9645;51.448;6.260;2023-02-01T12:58:43;13.40;;;3.55;;
19024;SDS011;9645;51.448;6.260;2023-02-01T13:01:14;18.40;;;5.07;;
19024;SDS011;9645;51.448;6.260;2023-02-01T13:03:50;23.75;;;4.10;;
19024;SDS011;9645;51.448;6.260;2023-02-01T13:06:22;22.25;;;4.20;;
19024;SDS011;9645;51.448;6.260;2023-02-01T13:08:55;13.68;;;3.20;;
19024;SDS011;9645;51.448;6.260;2023-02-01T13:11:29;18.15;;;2.47;;
19024;SDS011;9645;51.448;6.260;2023-02-01T13:14:00;12.98;;;2.72;;
19024;SDS011;9645;51.448;6.260;2023-02-01T13:16:32;17.20;;;2.72;;
19024;SDS011;9645;51.448;6.260;2023-02-01T13:19:05;14.68;;;2.50;;
19024;SDS011;9645;51.448;6.260;2023-02-01T13:21:39;13.52;;;2.95;;
19024;SDS011;9645;51.448;6.260;2023-02-01T13:24:26;23.27;;;2.42;;
19024;SDS011;9645;51.448;6.260;2023-02-01T13:26:59;10.38;;;2.42;;
19024;SDS011;9645;51.448;6.260;2023-02-01T13:29:26;20.73;;;2.80;;
19024;SDS011;9645;51.448;6.260;2023-02-01T13:38:06;9.60;;;2.65;;
19024;SDS011;9645;51.448;6.260;2023-02-01T13:40:47;15.90;;;3.45;;
19024;SDS011;9645;51.448;6.260;2023-02-01T13:43:25;16.27;;;2.78;;
19024;SDS011;9645;51.448;6.260;2023-02-01T13:45:55;26.27;;;3.20;;
19024;SDS011;9645;51.448;6.260;2023-02-01T13:48:24;15.65;;;2.83;;
19024;SDS011;9645;51.448;6.260;2023-02-01T13:50:56;10.48;;;2.58;;
19024;SDS011;9645;51.448;6.260;2023-02-01T13:53:26;26.13;;;2.65;;
19024;SDS011;9645;51.448;6.260;2023-02-01T13:55:57;17.50;;;2.88;;
19024;SDS011;9645;51.448;6.260;2023-02-01T13:58:31;19.92;;;2.90;;
19024;SDS011;9645;51.448;6.260;2023-02-01T14:07:16;9.65;;;2.40;;
19024;SDS011;9645;51.448;6.260;2023-02-01T14:09:45;12.18;;;2.50;;
19024;SDS011;9645;51.448;6.260;2023-02-01T14:15:25;13.52;;;3.08;;
19024;SDS011;9645;51.448;6.260;2023-02-01T14:17:53;10.23;;;2.78;;
19024;SDS011;9645;51.448;6.260;2023-02-01T14:23:29;18.25;;;2.97;;
19024;SDS011;9645;51.448;6.260;2023-02-01T14:26:07;15.25;;;2.88;;
19024;SDS011;9645;51.448;6.260;2023-02-01T14:28:45;28.23;;;2.88;;
19024;SDS011;9645;51.448;6.260;2023-02-01T14:34:26;17.60;;;2.13;;
19024;SDS011;9645;51.448;6.260;2023-02-01T14:36:58;13.40;;;2.55;;
19024;SDS011;9645;51.448;6.260;2023-02-01T14:39:28;28.83;;;2.85;;
19024;SDS011;9645;51.448;6.260;2023-02-01T14:42:04;14.70;;;2.97;;
19024;SDS011;9645;51.448;6.260;2023-02-01T14:44:40;14.50;;;2.33;;
19024;SDS011;9645;51.448;6.260;2023-02-01T14:47:10;13.65;;;2.30;;
19024;SDS011;9645;51.448;6.260;2023-02-01T14:52:51;11.73;;;2.22;;
19024;SDS011;9645;51.448;6.260;2023-02-01T14:55:30;15.95;;;3.17;;
19024;SDS011;9645;51.448;6.260;2023-02-01T14:58:05;14.93;;;2.60;;
19024;SDS011;9645;51.448;6.260;2023-02-01T15:00:41;20.75;;;4.53;;
19024;SDS011;9645;51.448;6.260;2023-02-01T15:03:19;13.52;;;2.50;;
19024;SDS011;9645;51.448;6.260;2023-02-01T15:05:55;11.23;;;2.28;;
19024;SDS011;9645;51.448;6.260;2023-02-01T15:08:24;24.88;;;3.05;;
19024;SDS011;9645;51.448;6.260;2023-02-01T15:10:54;20.27;;;2.92;;
19024;SDS011;9645;51.448;6.260;2023-02-01T15:13:24;22.52;;;3.05;;
19024;SDS011;9645;51.448;6.260;2023-02-01T15:15:59;22.63;;;4.18;;
19024;SDS011;9645;51.448;6.260;2023-02-01T15:18:29;15.65;;;3.08;;
19024;SDS011;9645;51.448;6.260;2023-02-01T15:20:57;19.02;;;3.05;;
19024;SDS011;9645;51.448;6.260;2023-02-01T15:23:25;14.98;;;2.92;;
19024;SDS011;9645;51.448;6.260;2023-02-01T15:25:53;15.90;;;4.50;;
19024;SDS011;9645;51.448;6.260;2023-02-01T15:28:21;19.13;;;2.40;;
19024;SDS011;9645;51.448;6.260;2023-02-01T15:30:52;19.17;;;2.97;;
19024;SDS011;9645;51.448;6.260;2023-02-01T15:33:23;16.55;;;2.95;;
19024;SDS011;9645;51.448;6.260;2023-02-01T15:35:53;14.90;;;2.30;;
19024;SDS011;9645;51.448;6.260;2023-02-01T15:38:25;14.30;;;2.55;;
19024;SDS011;9645;51.448;6.260;2023-02-01T15:41:01;18.92;;;3.00;;
19024;SDS011;9645;51.448;6.260;2023-02-01T15:43:32;6.93;;;2.80;;
19024;SDS011;9645;51.448;6.260;2023-02-01T15:46:01;9.65;;;2.70;;
19024;SDS011;9645;51.448;6.260;2023-02-01T15:48:32;17.35;;;3.60;;